createdAt,value
2023-02-13T00:00:17.004Z,101871.91
2023-02-13T00:02:45.705Z,101872.69
2023-02-13T00:05:13.207Z,101863.88
2023-02-13T00:07:40.676Z,101862.78
2023-02-13T00:10:08.795Z,101860.75
2023-02-13T00:12:36.296Z,101858.81
2023-02-13T00:15:04.323Z,101863.25
2023-02-13T00:17:31.717Z,101857.72
2023-02-13T00:20:00.244Z,101855.00
2023-02-13T00:22:27.489Z,101862.50
2023-02-13T00:24:54.640Z,101859.78
2023-02-13T00:27:21.812Z,101847.22
2023-02-13T00:29:49.820Z,101847.22
2023-02-13T00:32:17.262Z,101850.22
2023-02-13T00:34:44.430Z,101859.31
2023-02-13T00:37:12.998Z,101851.38
2023-02-13T00:39:40.172Z,101856.25
2023-02-13T00:42:07.468Z,101848.66
2023-02-13T00:44:34.614Z,101847.91
2023-02-13T00:47:01.859Z,101843.56
2023-02-13T00:49:29.039Z,101853.44
2023-02-13T00:51:56.211Z,101846.94
2023-02-13T00:54:24.705Z,101848.31
2023-02-13T00:56:51.844Z,101838.78
2023-02-13T00:59:19.002Z,101852.09
2023-02-13T01:01:46.201Z,101839.09
2023-02-13T01:04:14.025Z,101841.91
2023-02-13T01:06:41.209Z,101839.09
2023-02-13T01:09:08.792Z,101837.16
2023-02-13T01:11:39.065Z,101839.78
2023-02-13T01:14:06.213Z,101835.00
2023-02-13T01:16:33.406Z,101832.31
2023-02-13T01:19:00.632Z,101836.84
2023-02-13T01:21:27.812Z,101832.31
2023-02-13T01:23:54.996Z,101828.41
2023-02-13T01:26:24.384Z,101831.03
2023-02-13T01:28:54.526Z,101831.78
2023-02-13T01:31:22.167Z,101830.25
2023-02-13T01:33:51.212Z,101825.06
2023-02-13T01:36:22.319Z,101825.25
2023-02-13T01:38:53.172Z,101817.22
2023-02-13T01:41:20.548Z,101821.66
2023-02-13T01:43:50.850Z,101819.91
2023-02-13T01:46:24.539Z,101820.81
2023-02-13T01:48:54.369Z,101832.50
2023-02-13T01:51:25.569Z,101833.38
2023-02-13T01:54:00.525Z,101830.34
2023-02-13T01:56:32.438Z,101823.88
2023-02-13T01:59:02.978Z,101818.66
2023-02-13T02:01:33.291Z,101826.97
2023-02-13T02:04:07.699Z,101826.97
2023-02-13T02:06:38.466Z,101824.28
2023-02-13T02:09:11.207Z,101820.56
2023-02-13T02:11:44.843Z,101812.34
2023-02-13T02:14:12.375Z,101811.88
2023-02-13T02:16:43.204Z,101808.09
2023-02-13T02:19:19.184Z,101811.78
2023-02-13T02:22:08.950Z,101809.19
2023-02-13T02:25:00.841Z,101811.78
2023-02-13T02:28:10.598Z,101809.06
2023-02-13T02:31:10.476Z,101811.78
2023-02-13T02:33:52.525Z,101809.28
2023-02-13T02:36:30.334Z,101814.91
2023-02-13T02:39:07.459Z,101804.38
2023-02-13T02:41:46.535Z,101805.94
2023-02-13T02:44:42.129Z,101801.50
2023-02-13T02:47:18.418Z,101805.56
2023-02-13T02:49:55.417Z,101800.19
2023-02-13T02:52:31.422Z,101810.13
2023-02-13T02:55:04.923Z,101810.63
2023-02-13T02:57:34.649Z,101806.88
2023-02-13T03:00:01.891Z,101802.81
2023-02-13T03:02:30.598Z,101810.44
2023-02-13T03:05:01.086Z,101810.31
2023-02-13T03:07:28.266Z,101808.84
2023-02-13T03:09:57.312Z,101813.19
2023-02-13T03:12:31.705Z,101810.97
2023-02-13T03:14:58.917Z,101810.19
2023-02-13T03:17:26.097Z,101812.28
2023-02-13T03:20:03.147Z,101815.31
2023-02-13T03:22:41.354Z,101806.28
2023-02-13T03:25:16.374Z,101813.75
2023-02-13T03:27:47.382Z,101811.06
2023-02-13T03:30:23.906Z,101810.75
2023-02-13T03:33:05.564Z,101808.31
2023-02-13T03:35:41.171Z,101809.13
2023-02-13T03:38:14.306Z,101805.84
2023-02-13T03:40:48.146Z,101802.63
2023-02-13T03:43:18.598Z,101808.66
2023-02-13T03:45:48.467Z,101804.78
2023-02-13T03:48:19.353Z,101825.19
2023-02-13T03:50:48.130Z,101813.31
2023-02-13T03:53:16.021Z,101825.47
2023-02-13T03:55:47.827Z,101819.69
2023-02-13T03:58:17.082Z,101814.81
2023-02-13T04:00:50.596Z,101819.03
2023-02-13T04:03:24.722Z,101814.41
2023-02-13T04:05:57.793Z,101819.34
2023-02-13T04:08:24.993Z,101817.81
2023-02-13T04:10:57.728Z,101827.22
2023-02-13T04:13:32.526Z,101819.63
2023-02-13T04:16:05.126Z,101821.84
2023-02-13T04:18:34.291Z,101827.25
2023-02-13T04:21:04.181Z,101833.66
2023-02-13T04:23:31.469Z,101820.50
2023-02-13T04:26:01.337Z,101823.50
2023-02-13T04:28:28.518Z,101823.81
2023-02-13T04:30:56.239Z,101823.19
2023-02-13T04:33:23.854Z,101817.22
2023-02-13T04:35:51.120Z,101821.59
2023-02-13T04:38:19.654Z,101826.34
2023-02-13T04:40:46.801Z,101832.34
2023-02-13T04:43:13.971Z,101829.78
2023-02-13T04:45:41.259Z,101822.09
2023-02-13T04:48:09.127Z,101825.81
2023-02-13T04:50:36.262Z,101833.31
2023-02-13T04:53:03.445Z,101829.09
2023-02-13T04:55:31.994Z,101828.38
2023-02-13T04:57:59.197Z,101821.53
2023-02-13T05:00:28.284Z,101812.59
2023-02-13T05:03:00.987Z,101815.50
2023-02-13T05:05:28.162Z,101816.47
2023-02-13T05:07:55.328Z,101818.56
2023-02-13T05:10:22.493Z,101818.94
2023-02-13T05:12:51.096Z,101821.75
2023-02-13T05:15:18.436Z,101818.41
2023-02-13T05:17:46.014Z,101818.53
2023-02-13T05:20:14.570Z,101824.09
2023-02-13T05:22:44.475Z,101831.59
2023-02-13T05:25:11.613Z,101831.84
2023-02-13T05:27:38.782Z,101825.81
2023-02-13T05:30:08.454Z,101828.78
2023-02-13T05:32:35.618Z,101835.97
2023-02-13T05:35:04.541Z,101837.66
2023-02-13T05:37:32.140Z,101835.03
2023-02-13T05:39:59.433Z,101840.63
2023-02-13T05:42:26.596Z,101835.66
2023-02-13T05:44:53.794Z,101843.72
2023-02-13T05:47:22.361Z,101837.69
2023-02-13T05:49:49.493Z,101842.31
2023-02-13T05:52:16.682Z,101850.34
2023-02-13T05:54:43.845Z,101851.41
2023-02-13T05:57:11.029Z,101844.28
2023-02-13T05:59:38.162Z,101849.66
2023-02-13T06:02:05.320Z,101846.28
2023-02-13T06:04:34.984Z,101847.41
2023-02-13T06:07:02.185Z,101834.13
2023-02-13T06:09:29.386Z,101832.38
2023-02-13T06:11:56.553Z,101839.69
2023-02-13T06:14:23.735Z,101847.16
2023-02-13T06:16:50.949Z,101853.66
2023-02-13T06:19:18.112Z,101849.28
2023-02-13T06:21:46.640Z,101857.56
2023-02-13T06:24:13.849Z,101855.19
2023-02-13T06:26:40.992Z,101852.72
2023-02-13T06:29:08.144Z,101854.78
2023-02-13T06:31:35.523Z,101849.47
2023-02-13T06:34:03.057Z,101854.97
2023-02-13T06:36:30.396Z,101856.16
2023-02-13T06:38:58.913Z,101855.28
2023-02-13T06:41:26.248Z,101853.47
2023-02-13T06:43:53.385Z,101857.97
2023-02-13T06:46:20.828Z,101849.09
2023-02-13T06:48:47.995Z,101859.84
2023-02-13T06:51:15.171Z,101852.84
2023-02-13T06:53:42.355Z,101852.03
2023-02-13T06:56:10.850Z,101854.78
2023-02-13T06:58:38.245Z,101862.72
2023-02-13T07:01:05.643Z,101864.41
2023-02-13T07:03:32.836Z,101865.19
2023-02-13T07:06:00.016Z,101872.19
2023-02-13T07:08:27.365Z,101864.03
2023-02-13T07:10:54.687Z,101864.81
2023-02-13T07:13:23.276Z,101864.69
2023-02-13T07:15:50.447Z,101876.06
2023-02-13T07:18:17.661Z,101872.31
2023-02-13T07:20:44.836Z,101887.19
2023-02-13T07:23:12.124Z,101888.00
2023-02-13T07:25:39.372Z,101888.81
2023-02-13T07:28:07.351Z,101885.91
2023-02-13T07:30:36.045Z,101880.97
2023-02-13T07:33:04.219Z,101880.56
2023-02-13T07:35:31.704Z,101879.50
2023-02-13T07:37:59.282Z,101894.16
2023-02-13T07:40:26.472Z,101897.38
2023-02-13T07:42:53.649Z,101890.81
2023-02-13T07:45:20.816Z,101889.97
2023-02-13T07:47:49.336Z,101897.03
2023-02-13T07:50:16.700Z,101886.06
2023-02-13T07:52:43.862Z,101889.19
2023-02-13T07:55:11.014Z,101892.59
2023-02-13T07:57:38.218Z,101889.47
2023-02-13T08:00:06.753Z,101892.50
2023-02-13T08:02:38.912Z,101895.47
2023-02-13T08:05:08.065Z,101888.56
2023-02-13T08:07:35.552Z,101889.31
2023-02-13T08:10:03.094Z,101886.09
2023-02-13T08:12:32.229Z,101888.72
2023-02-13T08:14:59.540Z,101894.25
2023-02-13T08:17:26.698Z,101896.91
2023-02-13T08:19:53.882Z,101898.91
2023-02-13T08:22:22.684Z,101893.94
2023-02-13T08:24:49.832Z,101895.63
2023-02-13T08:27:17.048Z,101892.19
2023-02-13T08:29:44.207Z,101894.59
2023-02-13T08:32:11.426Z,101889.34
2023-02-13T08:34:38.592Z,101887.94
2023-02-13T08:37:05.788Z,101894.06
2023-02-13T08:39:34.417Z,101896.13
2023-02-13T08:42:01.596Z,101899.22
2023-02-13T08:44:28.783Z,101894.78
2023-02-13T08:46:56.013Z,101896.75
2023-02-13T08:49:23.339Z,101903.97
2023-02-13T08:51:50.554Z,101896.84
2023-02-13T08:54:17.988Z,101902.06
2023-02-13T08:56:46.621Z,101900.41
2023-02-13T08:59:14.032Z,101901.25
2023-02-13T09:01:41.477Z,101899.47
2023-02-13T09:04:08.683Z,101894.28
2023-02-13T09:06:35.940Z,101893.56
2023-02-13T09:09:04.851Z,101896.75
2023-02-13T09:11:32.228Z,101894.72
2023-02-13T09:14:00.734Z,101896.31
2023-02-13T09:16:27.983Z,101901.44
2023-02-13T09:18:55.147Z,101897.78
2023-02-13T09:21:22.805Z,101906.50
2023-02-13T09:23:50.455Z,101898.09
2023-02-13T09:26:19.788Z,101897.69
2023-02-13T09:28:48.288Z,101901.66
2023-02-13T09:31:18.912Z,101898.38
2023-02-13T09:33:48.242Z,101891.78
2023-02-13T09:36:17.302Z,101889.81
2023-02-13T09:38:44.871Z,101893.53
2023-02-13T09:41:17.109Z,101888.38
2023-02-13T09:43:49.587Z,101898.50
2023-02-13T09:46:21.537Z,101890.88
2023-02-13T09:48:51.457Z,101892.34
2023-02-13T09:51:21.244Z,101895.97
2023-02-13T09:53:56.882Z,101894.34
2023-02-13T09:56:39.561Z,101894.72
2023-02-13T09:59:15.199Z,101892.69
2023-02-13T10:01:47.857Z,101891.19
2023-02-13T10:04:29.189Z,101893.31
2023-02-13T10:07:08.279Z,101899.94
2023-02-13T10:09:44.604Z,101899.97
2023-02-13T10:12:28.145Z,101883.03
2023-02-13T10:15:14.573Z,101889.31
2023-02-13T10:17:45.402Z,101891.28
2023-02-13T10:20:27.227Z,101888.28
2023-02-13T10:22:59.060Z,101892.19
2023-02-13T10:25:27.713Z,101893.06
2023-02-13T10:27:58.353Z,101888.50
2023-02-13T10:30:30.512Z,101891.09
2023-02-13T10:33:04.585Z,101890.78
2023-02-13T10:35:32.980Z,101886.09
2023-02-13T10:38:00.193Z,101885.09
2023-02-13T10:40:32.191Z,101883.34
2023-02-13T10:43:07.512Z,101877.25
2023-02-13T10:45:55.224Z,101883.31
2023-02-13T10:48:42.930Z,101874.41
2023-02-13T10:51:19.042Z,101857.34
2023-02-13T10:53:59.630Z,101868.63
2023-02-13T10:56:35.337Z,101869.03
2023-02-13T10:59:16.338Z,101862.06
2023-02-13T11:01:50.087Z,101862.59
2023-02-13T11:04:20.214Z,101857.78
2023-02-13T11:06:55.763Z,101860.34
2023-02-13T11:09:24.061Z,101863.03
2023-02-13T11:11:52.010Z,101853.06
2023-02-13T11:14:21.196Z,101849.66
2023-02-13T11:16:52.861Z,101838.09
2023-02-13T11:19:25.618Z,101838.31
2023-02-13T11:21:59.293Z,101835.38
2023-02-13T11:24:27.974Z,101838.75
2023-02-13T11:27:00.538Z,101832.09
2023-02-13T11:29:30.043Z,101836.03
2023-02-13T11:32:20.277Z,101838.75
2023-02-13T11:34:49.886Z,101824.41
2023-02-13T11:37:22.911Z,101829.75
2023-02-13T11:39:51.807Z,101824.22
2023-02-13T11:42:24.597Z,101830.25
2023-02-13T11:44:54.342Z,101821.09
2023-02-13T11:47:37.061Z,101825.06
2023-02-13T11:50:19.085Z,101822.84
2023-02-13T11:52:52.653Z,101823.72
2023-02-13T11:55:30.327Z,101819.03
2023-02-13T11:58:00.199Z,101826.13
2023-02-13T12:00:31.931Z,101821.16
2023-02-13T12:02:59.429Z,101811.84
2023-02-13T12:05:28.524Z,101812.13
2023-02-13T12:08:00.339Z,101816.56
2023-02-13T12:10:28.013Z,101810.75
2023-02-13T12:12:57.528Z,101805.16
2023-02-13T12:15:27.721Z,101800.22
2023-02-13T12:18:04.605Z,101808.16
2023-02-13T12:20:44.619Z,101794.88
2023-02-13T12:23:22.466Z,101800.84
2023-02-13T12:26:04.022Z,101796.75
2023-02-13T12:28:44.518Z,101794.50
2023-02-13T12:31:43.833Z,101793.84
2023-02-13T12:34:25.614Z,101789.09
2023-02-13T12:37:04.988Z,101788.84
2023-02-13T12:39:34.957Z,101787.19
2023-02-13T12:42:22.028Z,101780.09
2023-02-13T12:45:02.395Z,101776.69
2023-02-13T12:47:32.939Z,101778.16
2023-02-13T12:50:30.845Z,101776.91
2023-02-13T12:53:19.283Z,101777.97
2023-02-13T12:56:11.039Z,101775.56
2023-02-13T12:58:53.201Z,101770.00
2023-02-13T13:01:43.313Z,101772.47
2023-02-13T13:04:20.400Z,101767.03
2023-02-13T13:07:01.849Z,101770.91
2023-02-13T13:09:44.404Z,101767.53
2023-02-13T13:12:29.647Z,101762.84
2023-02-13T13:15:06.208Z,101756.00
2023-02-13T13:17:50.575Z,101757.72
2023-02-13T13:20:44.377Z,101752.75
2023-02-13T13:23:19.210Z,101747.94
2023-02-13T13:25:57.354Z,101751.16
2023-02-13T13:28:28.840Z,101746.56
2023-02-13T13:30:58.888Z,101745.56
2023-02-13T13:33:27.043Z,101745.97
2023-02-13T13:36:02.104Z,101755.00
2023-02-13T13:38:43.471Z,101742.97
2023-02-13T13:41:18.817Z,101739.03
2023-02-13T13:44:01.867Z,101744.16
2023-02-13T13:46:44.213Z,101744.53
2023-02-13T13:49:26.742Z,101740.31
2023-02-13T13:51:53.942Z,101737.00
2023-02-13T13:54:33.586Z,101730.94
2023-02-13T13:57:12.794Z,101734.19
2023-02-13T14:00:14.261Z,101724.28
2023-02-13T14:02:47.493Z,101732.69
2023-02-13T14:05:22.403Z,101730.50
2023-02-13T14:07:51.767Z,101726.03
2023-02-13T14:11:06.762Z,101732.47
2023-02-13T14:13:37.778Z,101727.81
2023-02-13T14:16:09.478Z,101735.25
2023-02-13T14:18:36.950Z,101725.59
2023-02-13T14:21:05.038Z,101725.09
2023-02-13T14:23:48.326Z,101724.50
2023-02-13T14:26:33.994Z,101720.66
2023-02-13T14:29:26.594Z,101718.56
2023-02-13T14:32:01.548Z,101728.09
2023-02-13T14:34:30.395Z,101717.59
2023-02-13T14:37:16.483Z,101728.75
2023-02-13T14:39:43.823Z,101721.31
2023-02-13T14:42:25.175Z,101716.00
2023-02-13T14:44:56.492Z,101722.69
2023-02-13T14:47:30.663Z,101715.75
2023-02-13T14:50:01.551Z,101714.50
2023-02-13T14:52:34.268Z,101711.16
2023-02-13T14:55:05.433Z,101710.81
2023-02-13T14:57:37.814Z,101703.09
2023-02-13T15:00:10.965Z,101709.06
2023-02-13T15:02:44.973Z,101712.00
2023-02-13T15:05:14.592Z,101706.97
2023-02-13T15:07:46.976Z,101703.84
2023-02-13T15:10:33.288Z,101708.03
2023-02-13T15:13:02.109Z,101707.28
2023-02-13T15:15:33.825Z,101698.72
2023-02-13T15:18:04.358Z,101699.06
2023-02-13T15:20:34.595Z,101689.41
2023-02-13T15:23:02.986Z,101689.38
2023-02-13T15:25:34.436Z,101694.44
2023-02-13T15:28:03.880Z,101688.38
2023-02-13T15:30:33.682Z,101685.59
2023-02-13T15:33:02.630Z,101690.16
2023-02-13T15:35:31.722Z,101684.44
2023-02-13T15:37:59.584Z,101683.94
2023-02-13T15:40:29.114Z,101690.84
2023-02-13T15:42:57.492Z,101688.25
2023-02-13T15:45:26.964Z,101703.28
2023-02-13T15:47:56.547Z,101687.56
2023-02-13T15:50:29.079Z,101693.44
2023-02-13T15:52:57.947Z,101701.00
2023-02-13T15:55:27.152Z,101697.84
2023-02-13T15:57:57.179Z,101699.44
2023-02-13T16:00:26.770Z,101697.38
2023-02-13T16:02:57.777Z,101698.38
2023-02-13T16:05:39.351Z,101704.13
2023-02-13T16:08:35.652Z,101700.47
2023-02-13T16:11:26.142Z,101715.44
2023-02-13T16:14:04.555Z,101706.97
2023-02-13T16:16:35.248Z,101704.59
2023-02-13T16:19:04.479Z,101715.09
2023-02-13T16:21:31.796Z,101711.31
2023-02-13T16:24:03.344Z,101710.09
2023-02-13T16:26:30.750Z,101704.91
2023-02-13T16:28:58.009Z,101700.88
2023-02-13T16:31:25.385Z,101701.28
2023-02-13T16:33:52.728Z,101702.44
2023-02-13T16:36:29.163Z,101705.69
2023-02-13T16:38:56.519Z,101709.19
2023-02-13T16:41:32.210Z,101701.88
2023-02-13T16:44:00.532Z,101707.72
2023-02-13T16:46:33.024Z,101709.63
2023-02-13T16:49:16.220Z,101713.31
2023-02-13T16:51:48.088Z,101715.56
2023-02-13T16:54:22.821Z,101719.16
2023-02-13T16:56:52.461Z,101723.34
2023-02-13T16:59:30.148Z,101726.81
2023-02-13T17:02:15.706Z,101725.53
2023-02-13T17:04:45.005Z,101727.94
2023-02-13T17:07:15.983Z,101736.25
2023-02-13T17:09:43.450Z,101738.44
2023-02-13T17:12:13.091Z,101738.34
2023-02-13T17:14:40.265Z,101739.09
2023-02-13T17:17:11.898Z,101742.13
2023-02-13T17:19:39.137Z,101746.38
2023-02-13T17:22:06.594Z,101749.63
2023-02-13T17:24:35.734Z,101750.84
2023-02-13T17:27:02.877Z,101748.31
2023-02-13T17:29:30.120Z,101752.84
2023-02-13T17:31:57.587Z,101752.84
2023-02-13T17:34:24.826Z,101760.88
2023-02-13T17:36:51.968Z,101762.53
2023-02-13T17:39:19.131Z,101754.50
2023-02-13T17:41:47.687Z,101757.47
2023-02-13T17:44:14.840Z,101761.06
2023-02-13T17:46:42.395Z,101758.59
2023-02-13T17:49:09.592Z,101752.06
2023-02-13T17:51:39.441Z,101754.06
2023-02-13T17:54:08.259Z,101758.09
2023-02-13T17:56:35.437Z,101754.50
2023-02-13T17:59:03.986Z,101758.94
2023-02-13T18:01:31.173Z,101760.97
2023-02-13T18:03:58.373Z,101763.84
2023-02-13T18:06:25.541Z,101761.66
2023-02-13T18:08:52.740Z,101749.47
2023-02-13T18:11:19.966Z,101747.34
2023-02-13T18:13:47.167Z,101751.38
2023-02-13T18:16:16.219Z,101741.78
2023-02-13T18:18:43.398Z,101745.16
2023-02-13T18:21:11.954Z,101743.41
2023-02-13T18:23:39.867Z,101740.97
2023-02-13T18:26:09.652Z,101745.91
2023-02-13T18:28:36.967Z,101741.47
2023-02-13T18:31:04.578Z,101740.13
2023-02-13T18:33:33.150Z,101731.69
2023-02-13T18:36:01.862Z,101735.41
2023-02-13T18:38:29.517Z,101726.78
2023-02-13T18:40:56.913Z,101726.94
2023-02-13T18:43:24.254Z,101727.91
2023-02-13T18:45:51.490Z,101729.78
2023-02-13T18:48:18.953Z,101726.63
2023-02-13T18:50:47.473Z,101727.81
2023-02-13T18:53:16.741Z,101725.53
2023-02-13T18:55:44.413Z,101724.97
2023-02-13T18:58:11.786Z,101728.38
2023-02-13T19:00:39.241Z,101732.25
2023-02-13T19:03:06.412Z,101732.50
2023-02-13T19:05:33.644Z,101733.47
2023-02-13T19:08:02.185Z,101718.47
2023-02-13T19:10:29.414Z,101716.81
2023-02-13T19:12:56.568Z,101718.06
2023-02-13T19:15:23.708Z,101721.22
2023-02-13T19:17:50.938Z,101726.84
2023-02-13T19:20:18.252Z,101729.78
2023-02-13T19:22:45.444Z,101723.91
2023-02-13T19:25:13.976Z,101725.78
2023-02-13T19:27:41.196Z,101728.78
2023-02-13T19:30:09.051Z,101723.75
2023-02-13T19:32:36.299Z,101724.63
2023-02-13T19:35:03.841Z,101725.66
2023-02-13T19:37:42.988Z,101725.09
2023-02-13T19:40:12.337Z,101716.22
2023-02-13T19:42:40.867Z,101714.78
2023-02-13T19:45:09.226Z,101712.31
2023-02-13T19:47:36.377Z,101711.72
2023-02-13T19:50:03.839Z,101724.28
2023-02-13T19:52:30.998Z,101713.78
2023-02-13T19:54:58.198Z,101723.56
2023-02-13T19:57:25.358Z,101724.66
2023-02-13T19:59:53.870Z,101728.44
2023-02-13T20:02:21.113Z,101730.50
2023-02-13T20:04:48.492Z,101725.47
2023-02-13T20:07:15.695Z,101725.75
2023-02-13T20:09:43.074Z,101728.66
2023-02-13T20:12:10.653Z,101728.22
2023-02-13T20:14:37.823Z,101736.59
2023-02-13T20:17:06.340Z,101736.75
2023-02-13T20:19:33.521Z,101737.84
2023-02-13T20:22:00.730Z,101725.59
2023-02-13T20:24:27.897Z,101731.94
2023-02-13T20:26:55.090Z,101735.47
2023-02-13T20:29:22.331Z,101728.34
2023-02-13T20:31:49.586Z,101739.09
2023-02-13T20:34:18.172Z,101741.78
2023-02-13T20:36:45.343Z,101734.94
2023-02-13T20:39:12.571Z,101730.56
2023-02-13T20:41:39.751Z,101729.91
2023-02-13T20:44:08.729Z,101731.13
2023-02-13T20:46:38.186Z,101729.59
2023-02-13T20:49:05.641Z,101727.03
2023-02-13T20:51:34.632Z,101730.06
2023-02-13T20:54:02.091Z,101732.94
2023-02-13T20:56:29.479Z,101728.75
2023-02-13T20:58:59.144Z,101727.19
2023-02-13T21:01:28.981Z,101728.19
2023-02-13T21:03:57.005Z,101725.56
2023-02-13T21:06:26.531Z,101731.88
2023-02-13T21:08:55.236Z,101731.94
2023-02-13T21:11:23.208Z,101725.97
2023-02-13T21:13:50.675Z,101728.81
2023-02-13T21:16:20.075Z,101730.72
2023-02-13T21:18:48.373Z,101732.00
2023-02-13T21:21:16.496Z,101726.06
2023-02-13T21:23:43.718Z,101728.84
2023-02-13T21:26:13.943Z,101725.38
2023-02-13T21:28:42.088Z,101721.06
2023-02-13T21:31:11.983Z,101718.72
2023-02-13T21:33:39.350Z,101723.34
2023-02-13T21:36:08.553Z,101725.34
2023-02-13T21:38:36.955Z,101727.97
2023-02-13T21:41:05.545Z,101731.72
2023-02-13T21:43:34.190Z,101728.09
2023-02-13T21:46:06.230Z,101731.56
2023-02-13T21:48:33.493Z,101722.69
2023-02-13T21:51:04.585Z,101715.69
2023-02-13T21:53:31.758Z,101717.44
2023-02-13T21:56:01.026Z,101712.06
2023-02-13T21:58:28.276Z,101714.00
2023-02-13T22:00:57.301Z,101709.81
2023-02-13T22:03:24.867Z,101705.44
2023-02-13T22:05:52.059Z,101709.97
2023-02-13T22:08:19.224Z,101711.03
2023-02-13T22:10:52.942Z,101710.28
2023-02-13T22:13:20.186Z,101704.06
2023-02-13T22:15:47.353Z,101698.69
2023-02-13T22:18:15.876Z,101700.59
2023-02-13T22:20:43.010Z,101696.25
2023-02-13T22:23:10.170Z,101691.00
2023-02-13T22:25:37.313Z,101687.56
2023-02-13T22:28:04.810Z,101685.00
2023-02-13T22:30:32.181Z,101685.19
2023-02-13T22:32:59.468Z,101686.09
2023-02-13T22:35:27.978Z,101679.09
2023-02-13T22:37:55.186Z,101681.00
2023-02-13T22:40:22.310Z,101679.31
2023-02-13T22:42:51.613Z,101683.81
2023-02-13T22:45:18.773Z,101681.28
2023-02-13T22:47:45.916Z,101681.41
2023-02-13T22:50:13.120Z,101683.25
2023-02-13T22:52:41.710Z,101682.44
2023-02-13T22:55:09.050Z,101695.13
2023-02-13T22:57:36.209Z,101688.03
2023-02-13T23:00:04.395Z,101691.69
2023-02-13T23:02:31.587Z,101698.03
2023-02-13T23:04:58.741Z,101701.66
2023-02-13T23:07:25.994Z,101693.75
2023-02-13T23:09:54.574Z,101689.34
2023-02-13T23:12:21.719Z,101701.81
2023-02-13T23:14:48.880Z,101697.47
2023-02-13T23:17:16.018Z,101685.97
2023-02-13T23:19:43.197Z,101682.34
2023-02-13T23:22:10.378Z,101694.06
2023-02-13T23:24:37.553Z,101689.69
2023-02-13T23:27:06.062Z,101697.81
2023-02-13T23:29:33.181Z,101692.50
2023-02-13T23:32:00.463Z,101700.69
2023-02-13T23:34:27.721Z,101700.78
2023-02-13T23:36:54.861Z,101702.53
2023-02-13T23:39:22.138Z,101705.25
2023-02-13T23:41:49.358Z,101699.09
2023-02-13T23:44:18.130Z,101711.59
2023-02-13T23:46:45.330Z,101705.47
2023-02-13T23:49:12.566Z,101703.75
2023-02-13T23:51:39.777Z,101703.84
2023-02-13T23:54:06.964Z,101704.81
2023-02-13T23:56:34.104Z,101699.63
2023-02-13T23:59:01.262Z,101713.03
